Time;durP1;ratioP1;P1;durP2;ratioP2;P2;SDS_P1;SDS_P2;PMS_P1;PMS_P2;Temp;Humidity;BMP_temperature;BMP_pressure;BME280_temperature;BME280_humidity;BME280_pressure;Samples;Min_cycle;Max_cycle;Signal;HPM_P1;HPM_P2
2022/02/06 00:01:46;;;;;;;6.07;3.00;;;9.40;52.10;;;;;;6278738;28;20046;-72
2022/02/06 00:04:48;;;;;;;8.18;2.58;;;9.40;52.10;;;;;;6261400;28;20048;-72
2022/02/06 00:07:50;;;;;;;7.78;3.38;;;9.40;52.30;;;;;;6276354;28;20028;-72
2022/02/06 00:10:50;;;;;;;14.85;3.80;;;9.30;52.30;;;;;;6277162;28;20718;-72
2022/02/06 00:13:51;;;;;;;16.50;3.33;;;9.30;52.40;;;;;;6274013;28;20024;-72
2022/02/06 00:16:52;;;;;;;7.40;2.90;;;9.20;52.50;;;;;;6272199;28;20016;-72
2022/02/06 00:19:53;;;;;;;8.38;3.00;;;9.20;52.70;;;;;;6279768;28;20113;-72
2022/02/06 00:22:57;;;;;;;14.18;3.28;;;9.20;52.60;;;;;;6281643;28;20029;-72
2022/02/06 00:26:01;;;;;;;9.25;2.95;;;9.10;52.60;;;;;;6284070;28;20389;-72
2022/02/06 00:32:10;;;;;;;6.47;2.47;;;9.10;53.20;;;;;;6281365;28;20116;-73
2022/02/06 00:41:25;;;;;;;8.57;2.33;;;9.10;52.70;;;;;;6276974;28;20622;-72
2022/02/06 00:44:25;;;;;;;14.18;3.45;;;9.10;52.70;;;;;;6280009;28;20051;-72
2022/02/06 00:47:28;;;;;;;9.40;3.25;;;9.00;52.70;;;;;;6283056;28;20473;-72
2022/02/06 00:50:30;;;;;;;13.35;3.13;;;9.00;52.80;;;;;;6278516;28;20021;-72
2022/02/06 00:53:31;;;;;;;7.05;2.83;;;9.00;52.80;;;;;;6263494;28;20107;-72
2022/02/06 00:56:31;;;;;;;9.13;3.30;;;9.00;52.90;;;;;;6283273;28;20432;-72
2022/02/06 00:59:33;;;;;;;14.98;3.22;;;8.90;52.90;;;;;;6264691;28;20025;-72
2022/02/06 01:02:33;;;;;;;8.60;3.00;;;8.90;53.00;;;;;;6280118;28;20043;-72
2022/02/06 01:05:34;;;;;;;9.48;3.15;;;8.90;53.10;;;;;;6284743;28;20033;-72
2022/02/06 01:08:35;;;;;;;7.80;3.25;;;8.90;53.10;;;;;;6262287;28;20517;-71
2022/02/06 01:11:38;;;;;;;6.68;2.95;;;8.90;53.20;;;;;;6262980;28;20036;-72
2022/02/06 01:15:17;;;;;;;8.32;3.00;;;8.90;53.30;;;;;;6279002;28;20409;-72
2022/02/06 01:18:10;;;;;;;13.10;3.97;;;8.90;53.40;;;;;;6257918;28;20432;-72
2022/02/06 01:21:23;;;;;;;7.00;3.40;;;8.80;53.40;;;;;;6260201;28;20025;-72
2022/02/06 01:24:57;;;;;;;7.63;3.20;;;8.80;53.50;;;;;;6259532;28;20650;-72
2022/02/06 01:31:37;;;;;;;9.85;3.17;;;8.80;53.60;;;;;;6263566;28;20490;-72
2022/02/06 01:34:46;;;;;;;7.97;2.92;;;8.80;53.60;;;;;;6279884;28;20111;-72
2022/02/06 01:37:55;;;;;;;12.68;3.10;;;8.80;53.70;;;;;;6282516;28;20032;-73
2022/02/06 01:41:03;;;;;;;7.30;2.83;;;8.80;53.70;;;;;;6248849;28;20039;-72
2022/02/06 01:44:10;;;;;;;9.23;2.42;;;8.80;53.80;;;;;;6278190;28;20442;-72
2022/02/06 01:57:27;;;;;;;12.35;3.80;;;8.80;54.10;;;;;;6280195;28;20017;-72
2022/02/06 02:06:59;;;;;;;6.47;3.25;;;8.50;54.10;;;;;;6277064;28;20453;-72
2022/02/06 02:13:54;;;;;;;11.93;4.15;;;8.30;54.40;;;;;;6278815;28;20574;-72
2022/02/06 02:17:20;;;;;;;9.27;3.53;;;8.30;54.60;;;;;;6277790;28;20119;-72
2022/02/06 02:45:51;;;;;;;7.30;2.60;;;8.10;55.10;;;;;;6279085;28;20032;-71
2022/02/06 02:48:53;;;;;;;3.33;2.10;;;8.10;55.10;;;;;;6278556;28;20458;-73
2022/02/06 02:52:00;;;;;;;6.50;3.08;;;8.10;55.00;;;;;;6261960;28;20091;-72
2022/02/06 03:04:19;;;;;;;7.60;3.00;;;8.00;55.10;;;;;;6280027;28;20053;-72
2022/02/06 03:07:20;;;;;;;13.13;2.55;;;8.00;55.10;;;;;;6246102;28;20053;-73
2022/02/06 03:10:21;;;;;;;6.93;2.92;;;8.00;55.10;;;;;;6259457;28;20021;-73
2022/02/06 03:13:25;;;;;;;11.70;3.10;;;7.90;55.10;;;;;;6261721;28;20033;-73
2022/02/06 03:16:36;;;;;;;6.57;2.70;;;7.90;55.10;;;;;;6279783;28;20025;-73
2022/02/06 03:19:52;;;;;;;10.93;2.58;;;7.90;55.20;;;;;;6243489;28;20099;-72
2022/02/06 03:22:54;;;;;;;7.63;2.35;;;7.90;55.30;;;;;;6274820;28;20031;-72
2022/02/06 03:25:55;;;;;;;9.23;2.33;;;7.80;55.30;;;;;;6256882;28;20094;-72
2022/02/06 03:28:56;;;;;;;18.35;2.92;;;7.80;55.40;;;;;;6266365;28;20028;-73
2022/02/06 03:31:57;;;;;;;8.48;3.17;;;7.80;55.50;;;;;;6258523;28;20031;-71
2022/02/06 03:35:00;;;;;;;10.10;3.22;;;7.80;55.60;;;;;;6251892;28;20079;-72
2022/02/06 03:38:01;;;;;;;5.90;2.80;;;7.70;55.60;;;;;;6278718;28;20039;-72
2022/02/06 03:41:07;;;;;;;6.00;3.10;;;7.70;55.70;;;;;;6279873;28;20020;-71
2022/02/06 03:44:19;;;;;;;7.32;2.78;;;7.80;55.90;;;;;;6278302;28;20159;-71
2022/02/06 03:47:24;;;;;;;12.75;3.67;;;7.80;56.00;;;;;;6276645;28;20123;-71
2022/02/06 03:50:33;;;;;;;7.65;3.75;;;7.80;56.50;;;;;;6264107;28;20025;-72
2022/02/06 03:53:34;;;;;;;8.38;3.17;;;7.80;56.00;;;;;;6284990;28;20049;-72
2022/02/06 03:56:35;;;;;;;5.75;2.90;;;7.70;56.00;;;;;;6283365;28;20094;-71
2022/02/06 03:59:36;;;;;;;15.73;4.00;;;7.70;56.10;;;;;;6281442;28;20025;-72
2022/02/06 04:02:37;;;;;;;14.30;3.47;;;7.70;56.10;;;;;;6285640;28;20300;-72
2022/02/06 04:05:39;;;;;;;9.98;3.78;;;7.70;56.20;;;;;;6247129;28;20510;-72
2022/02/06 04:08:41;;;;;;;6.28;3.65;;;7.70;56.20;;;;;;6259432;28;20545;-72
2022/02/06 04:11:48;;;;;;;9.88;4.30;;;7.70;56.30;;;;;;6282334;28;20051;-72
2022/02/06 04:18:10;;;;;;;10.70;4.28;;;7.70;56.40;;;;;;6279366;28;20093;-72
2022/02/06 04:21:10;;;;;;;8.48;3.40;;;7.60;56.40;;;;;;6259928;28;20572;-72
2022/02/06 04:24:12;;;;;;;9.70;3.33;;;7.60;56.50;;;;;;6283066;28;20056;-72
2022/02/06 04:27:13;;;;;;;11.85;3.42;;;7.70;56.50;;;;;;6280067;28;20037;-71
2022/02/06 04:30:14;;;;;;;9.60;3.40;;;7.60;56.50;;;;;;6249628;28;20044;-71
2022/02/06 04:33:14;;;;;;;8.80;3.67;;;7.60;56.50;;;;;;6255765;28;20743;-71
2022/02/06 04:36:15;;;;;;;10.57;3.25;;;7.60;56.50;;;;;;6264927;28;20123;-72
2022/02/06 05:34:02;;;;;;;11.45;3.75;;;7.30;57.20;;;;;;6258833;28;20389;-71
2022/02/06 05:37:03;;;;;;;11.45;3.75;;;7.30;57.20;;;;;;6259351;28;20016;-71
2022/02/06 05:40:04;;;;;;;4.40;2.85;;;7.20;57.30;;;;;;6262533;28;20029;-71
2022/02/06 05:43:05;;;;;;;10.57;3.22;;;7.20;57.40;;;;;;6279565;28;20061;-71
2022/02/06 05:46:06;;;;;;;8.63;3.22;;;7.10;57.50;;;;;;6279564;28;20024;-71
2022/02/06 05:49:11;;;;;;;7.03;3.00;;;7.10;57.50;;;;;;6258060;28;20036;-71
2022/02/06 05:52:12;;;;;;;9.85;3.05;;;7.00;57.60;;;;;;6280620;28;20577;-71
2022/02/06 05:55:13;;;;;;;13.95;2.78;;;7.00;57.70;;;;;;6253115;28;20031;-71
2022/02/06 05:58:14;;;;;;;5.03;2.67;;;7.00;57.80;;;;;;6266048;28;20454;-71
2022/02/06 06:01:15;;;;;;;6.13;1.98;;;7.00;57.90;;;;;;6255037;28;20493;-72
2022/02/06 06:04:16;;;;;;;13.43;2.50;;;7.00;57.90;;;;;;6271387;28;20048;-71
2022/02/06 06:07:17;;;;;;;9.82;3.10;;;7.00;58.00;;;;;;6282392;28;20020;-71
2022/02/06 06:10:18;;;;;;;11.90;2.55;;;7.10;58.60;;;;;;6276110;28;20037;-71
2022/02/06 06:13:19;;;;;;;5.35;2.05;;;7.10;58.60;;;;;;6277134;28;20033;-72
2022/02/06 06:16:20;;;;;;;5.60;2.17;;;7.20;57.90;;;;;;6276041;28;20566;-72
2022/02/06 06:19:21;;;;;;;7.97;2.38;;;7.10;57.80;;;;;;6279996;28;20031;-71
2022/02/06 06:22:23;;;;;;;10.93;2.67;;;7.20;57.80;;;;;;6280200;28;20031;-71
2022/02/06 06:25:26;;;;;;;6.55;3.20;;;7.10;57.80;;;;;;6278225;28;20025;-72
2022/02/06 06:28:27;;;;;;;7.32;2.55;;;7.10;58.00;;;;;;6278728;28;20025;-72
2022/02/06 06:31:28;;;;;;;9.40;3.58;;;7.10;58.10;;;;;;6279888;28;20028;-72
2022/02/06 06:34:29;;;;;;;15.20;3.33;;;7.20;58.20;;;;;;6278325;28;20498;-72
2022/02/06 06:37:31;;;;;;;4.43;2.88;;;7.10;58.40;;;;;;6278881;28;20031;-72
2022/02/06 06:40:32;;;;;;;7.25;2.88;;;7.10;58.50;;;;;;6278892;28;20029;-72
2022/02/06 06:43:33;;;;;;;7.43;3.05;;;7.00;58.60;;;;;;6277873;28;20017;-72
2022/02/06 06:46:34;;;;;;;10.60;4.03;;;7.00;58.60;;;;;;6280125;28;20545;-72
2022/02/06 06:49:35;;;;;;;5.72;2.47;;;7.00;58.60;;;;;;6278533;28;20318;-72
2022/02/06 06:52:36;;;;;;;5.03;2.72;;;7.00;58.50;;;;;;6275631;28;20028;-72
2022/02/06 06:55:39;;;;;;;5.05;2.67;;;7.00;58.40;;;;;;6273871;28;20561;-72
2022/02/06 06:58:44;;;;;;;10.40;2.72;;;7.00;58.30;;;;;;6278893;28;20029;-72
2022/02/06 07:01:47;;;;;;;7.68;2.53;;;7.00;58.20;;;;;;6278113;28;20035;-72
2022/02/06 07:04:54;;;;;;;6.50;2.75;;;7.00;58.10;;;;;;6278818;28;20128;-72
2022/02/06 07:07:56;;;;;;;5.97;2.17;;;6.90;58.20;;;;;;6259871;28;20031;-72
2022/02/06 07:10:57;;;;;;;4.63;2.33;;;6.90;58.30;;;;;;6268421;28;20124;-73
2022/02/06 07:13:58;;;;;;;8.77;3.45;;;6.90;58.30;;;;;;6279573;28;20032;-72
2022/02/06 07:16:59;;;;;;;5.63;2.45;;;6.90;58.30;;;;;;6258357;28;20024;-74
2022/02/06 07:20:02;;;;;;;5.22;3.00;;;7.00;58.40;;;;;;6276072;28;20033;-72
2022/02/06 07:23:05;;;;;;;10.68;3.25;;;7.00;58.40;;;;;;6278117;28;20529;-72
2022/02/06 07:26:13;;;;;;;7.15;3.22;;;7.00;58.40;;;;;;6276337;28;20064;-72
2022/02/06 07:29:16;;;;;;;13.40;3.45;;;7.00;58.40;;;;;;6258011;28;20094;-71
2022/02/06 07:32:18;;;;;;;12.32;3.40;;;7.00;58.40;;;;;;6256846;28;20530;-72
2022/02/06 07:35:20;;;;;;;11.82;3.22;;;7.00;58.50;;;;;;6278453;28;20036;-72
2022/02/06 07:38:21;;;;;;;8.30;3.08;;;7.00;58.60;;;;;;6277162;28;20104;-72
2022/02/06 07:41:22;;;;;;;12.15;3.45;;;7.00;58.60;;;;;;6277489;28;20025;-72
2022/02/06 07:44:23;;;;;;;8.55;3.85;;;7.00;58.70;;;;;;6260125;28;20086;-72
2022/02/06 07:47:24;;;;;;;14.93;4.18;;;7.00;58.70;;;;;;6255280;28;20040;-72
2022/02/06 07:50:25;;;;;;;9.30;3.28;;;7.00;58.70;;;;;;6278753;28;20120;-72
2022/02/06 07:53:26;;;;;;;7.90;3.40;;;7.00;58.70;;;;;;6276124;28;20028;-72
2022/02/06 07:56:27;;;;;;;7.15;3.83;;;7.10;58.80;;;;;;6276961;28;20120;-72
2022/02/06 07:59:28;;;;;;;6.40;3.65;;;7.10;58.80;;;;;;6256626;28;20082;-72
2022/02/06 08:02:29;;;;;;;7.70;4.05;;;7.10;58.90;;;;;;6279061;28;20457;-72
2022/02/06 08:05:30;;;;;;;8.32;3.60;;;7.20;59.10;;;;;;6263761;28;20020;-72
2022/02/06 08:08:31;;;;;;;11.75;3.63;;;7.40;59.20;;;;;;6256286;28;20518;-71
2022/02/06 08:11:35;;;;;;;54.35;5.65;;;7.50;58.90;;;;;;6257760;28;20066;-73
2022/02/06 08:14:55;;;;;;;8.55;4.07;;;7.70;58.60;;;;;;6277323;28;20389;-72
2022/02/06 08:17:55;;;;;;;15.13;5.15;;;7.80;58.20;;;;;;6257634;28;20133;-72
2022/02/06 08:20:56;;;;;;;13.57;4.25;;;7.90;57.90;;;;;;6258821;28;20047;-71
2022/02/06 08:23:57;;;;;;;8.45;4.35;;;8.00;57.60;;;;;;6256254;28;20025;-71
2022/02/06 08:26:58;;;;;;;11.02;4.50;;;8.10;57.50;;;;;;6279108;28;20108;-71
2022/02/06 08:30:00;;;;;;;16.98;4.55;;;8.10;57.40;;;;;;6258519;28;20061;-72
2022/02/06 08:33:01;;;;;;;11.18;4.75;;;8.10;57.30;;;;;;6276212;28;20455;-72
2022/02/06 08:36:01;;;;;;;14.70;5.18;;;8.10;57.30;;;;;;6280701;28;20100;-72
2022/02/06 08:39:04;;;;;;;16.13;5.22;;;8.10;57.30;;;;;;6278784;28;20154;-73
2022/02/06 08:42:08;;;;;;;16.60;5.43;;;8.00;57.30;;;;;;6265434;28;20099;-71
2022/02/06 08:45:13;;;;;;;12.00;5.57;;;8.10;57.50;;;;;;6263104;28;20034;-71
2022/02/06 08:48:14;;;;;;;15.02;4.97;;;8.10;57.40;;;;;;6282334;28;20402;-71
2022/02/06 08:51:15;;;;;;;14.52;5.57;;;8.10;57.40;;;;;;6278838;28;20031;-71
2022/02/06 08:54:16;;;;;;;11.50;5.22;;;8.10;57.40;;;;;;6266053;28;20406;-72
2022/02/06 08:57:23;;;;;;;12.40;5.43;;;8.20;57.40;;;;;;6267218;28;20025;-72
2022/02/06 09:00:25;;;;;;;8.88;4.82;;;8.30;57.40;;;;;;6277410;28;20021;-72
2022/02/06 09:03:26;;;;;;;13.55;5.93;;;8.30;57.30;;;;;;6248803;28;20071;-71
2022/02/06 09:06:28;;;;;;;10.93;5.93;;;8.30;57.20;;;;;;6280614;28;20025;-72
2022/02/06 09:09:30;;;;;;;11.90;4.85;;;8.40;57.20;;;;;;6259145;28;20057;-73
2022/02/06 09:12:31;;;;;;;11.23;5.10;;;8.50;57.20;;;;;;6280869;28;20035;-72
2022/02/06 09:15:32;;;;;;;14.30;6.28;;;8.60;57.10;;;;;;6279222;28;20389;-73
2022/02/06 09:18:33;;;;;;;12.18;5.05;;;8.70;56.90;;;;;;6254593;28;20013;-74
2022/02/06 09:21:34;;;;;;;20.75;5.85;;;8.70;56.70;;;;;;6282485;28;20036;-72
2022/02/06 09:24:38;;;;;;;15.00;5.15;;;8.90;56.70;;;;;;6277086;28;20488;-73
2022/02/06 09:27:40;;;;;;;18.45;5.00;;;8.80;56.50;;;;;;6266216;28;20031;-72
2022/02/06 09:30:41;;;;;;;19.13;5.50;;;8.90;56.50;;;;;;6276845;28;20048;-73
2022/02/06 09:36:43;;;;;;;11.10;4.95;;;9.20;56.20;;;;;;6279523;28;20460;-71
2022/02/06 09:39:44;;;;;;;9.10;5.05;;;9.20;56.00;;;;;;6259767;28;20115;-71
2022/02/06 09:42:49;;;;;;;14.63;5.75;;;9.20;55.80;;;;;;6265725;28;20029;-73
2022/02/06 09:45:50;;;;;;;12.35;5.50;;;9.30;55.80;;;;;;6263144;28;20024;-72
2022/02/06 09:48:52;;;;;;;11.57;5.38;;;9.30;55.70;;;;;;6264734;28;20036;-72
2022/02/06 09:51:53;;;;;;;10.32;5.32;;;9.30;55.70;;;;;;6266306;28;20109;-74
2022/02/06 09:55:01;;;;;;;15.00;4.85;;;9.40;55.70;;;;;;6251556;28;20098;-72
2022/02/06 10:01:14;;;;;;;11.52;5.03;;;9.40;55.50;;;;;;6279308;28;20548;-73
2022/02/06 10:04:20;;;;;;;11.60;5.32;;;9.50;55.40;;;;;;6266151;28;20044;-73
2022/02/06 10:07:38;;;;;;;9.95;4.88;;;9.60;55.10;;;;;;6279232;28;20032;-73
2022/02/06 10:10:53;;;;;;;13.48;5.72;;;9.70;55.10;;;;;;6275404;28;20033;-72
2022/02/06 10:13:54;;;;;;;13.85;5.50;;;9.70;54.90;;;;;;6274707;28;20071;-72
2022/02/06 10:16:55;;;;;;;17.10;5.47;;;9.70;54.90;;;;;;6266652;28;20044;-72
2022/02/06 10:20:01;;;;;;;19.77;8.63;;;9.80;54.90;;;;;;6276524;28;20024;-73
2022/02/06 10:23:06;;;;;;;11.90;5.05;;;9.90;54.90;;;;;;6280281;28;20625;-72
2022/02/06 10:26:42;;;;;;;12.05;5.10;;;10.20;54.50;;;;;;6279704;28;20060;-72
2022/02/06 10:29:44;;;;;;;10.35;5.40;;;10.60;53.50;;;;;;6279585;28;20145;-73
2022/02/06 10:32:46;;;;;;;9.93;4.93;;;10.90;52.70;;;;;;6267662;28;20035;-71
2022/02/06 10:35:53;;;;;;;11.00;5.57;;;11.20;52.20;;;;;;6276592;28;20016;-74
2022/02/06 10:39:09;;;;;;;17.80;6.03;;;11.40;51.80;;;;;;6277013;28;20223;-73
2022/02/06 10:42:43;;;;;;;13.15;5.15;;;11.60;51.70;;;;;;6262704;28;20032;-74
2022/02/06 10:45:44;;;;;;;14.20;6.15;;;11.90;51.20;;;;;;6210084;28;20106;-74
2022/02/06 10:48:48;;;;;;;18.92;5.43;;;12.10;50.60;;;;;;6208843;28;20173;-73
2022/02/06 10:51:51;;;;;;;8.55;4.70;;;12.40;50.10;;;;;;6170715;28;20026;-73
2022/02/06 10:54:56;;;;;;;9.25;4.05;;;12.50;49.30;;;;;;6206790;28;20061;-72
2022/02/06 10:57:59;;;;;;;10.15;4.25;;;12.70;48.60;;;;;;6209122;28;20410;-72
2022/02/06 11:01:19;;;;;;;11.98;4.03;;;12.90;48.50;;;;;;6192047;28;20026;-74
2022/02/06 11:04:31;;;;;;;9.85;3.08;;;13.10;47.80;;;;;;6194023;28;20508;-74
2022/02/06 11:07:31;;;;;;;10.07;4.10;;;13.30;47.20;;;;;;6166850;28;20048;-72
2022/02/06 11:10:35;;;;;;;7.78;3.53;;;13.50;46.80;;;;;;6164549;28;20022;-72
2022/02/06 11:13:37;;;;;;;9.23;4.35;;;13.70;46.10;;;;;;6186654;28;20026;-72
2022/02/06 11:16:44;;;;;;;10.85;4.72;;;13.90;45.50;;;;;;6185755;28;20062;-73
2022/02/06 11:19:59;;;;;;;11.70;4.22;;;14.20;45.30;;;;;;6184100;28;20022;-72
2022/02/06 11:23:03;;;;;;;14.18;4.07;;;14.40;44.70;;;;;;6266938;28;20036;-72
2022/02/06 11:26:17;;;;;;;10.00;3.40;;;14.70;44.10;;;;;;6273934;28;20029;-72
2022/02/06 11:29:19;;;;;;;7.90;3.03;;;15.00;43.50;;;;;;6279246;28;20108;-72
2022/02/06 11:32:20;;;;;;;10.15;3.58;;;15.20;42.70;;;;;;6270720;28;20376;-72
2022/02/06 11:35:25;;;;;;;9.85;3.00;;;15.50;41.90;;;;;;6275853;28;20120;-72
2022/02/06 11:45:46;;;;;;;6.40;2.83;;;15.90;40.00;;;;;;6259504;28;20060;-73
2022/02/06 11:48:49;;;;;;;7.63;3.00;;;16.00;40.30;;;;;;6257414;28;20047;-72
2022/02/06 11:51:56;;;;;;;10.10;3.42;;;16.20;40.00;;;;;;6278402;28;20086;-72
2022/02/06 11:54:57;;;;;;;8.40;2.97;;;16.40;39.20;;;;;;6263375;28;20027;-72
2022/02/06 11:58:32;;;;;;;10.75;3.47;;;16.60;39.10;;;;;;6277882;28;20035;-72
2022/02/06 12:01:33;;;;;;;5.68;2.58;;;16.80;38.60;;;;;;6257418;28;20050;-72
2022/02/06 12:04:34;;;;;;;7.88;2.65;;;16.80;38.20;;;;;;6263628;28;20048;-72
2022/02/06 12:07:53;;;;;;;4.93;3.00;;;16.80;37.90;;;;;;6276235;28;20035;-72
2022/02/06 12:10:54;;;;;;;7.95;2.70;;;16.80;38.20;;;;;;6275682;28;20057;-73
2022/02/06 12:14:20;;;;;;;9.60;3.25;;;16.80;37.90;;;;;;6280863;28;20031;-72
2022/02/06 12:20:48;;;;;;;6.38;3.03;;;16.80;37.50;;;;;;6282688;28;20033;-72
2022/02/06 12:23:58;;;;;;;7.80;2.60;;;16.60;37.40;;;;;;6282221;28;20308;-72
2022/02/06 12:27:20;;;;;;;16.55;2.53;;;16.40;37.60;;;;;;6281097;28;20032;-73
2022/02/06 12:30:29;;;;;;;5.03;2.53;;;16.20;37.90;;;;;;6283681;28;20342;-72
2022/02/06 12:33:55;;;;;;;7.38;2.75;;;16.20;38.20;;;;;;6282054;28;20353;-72
2022/02/06 12:37:08;;;;;;;7.18;2.65;;;16.00;38.50;;;;;;6279159;28;20029;-73
2022/02/06 12:40:12;;;;;;;6.88;2.03;;;16.00;38.60;;;;;;6263739;28;20025;-72
2022/02/06 12:43:14;;;;;;;5.65;2.15;;;15.80;38.30;;;;;;6276491;28;20696;-72
2022/02/06 12:46:15;;;;;;;6.20;1.60;;;15.70;38.40;;;;;;6280569;28;20024;-73
2022/02/06 12:49:21;;;;;;;6.68;1.23;;;15.60;38.60;;;;;;6259071;28;20128;-72
2022/02/06 12:52:22;;;;;;;1.45;1.00;;;15.50;38.60;;;;;;6282053;28;20613;-72
2022/02/06 12:55:28;;;;;;;6.85;1.98;;;15.50;39.20;;;;;;6280833;28;20159;-72
2022/02/06 12:58:29;;;;;;;8.43;1.67;;;15.50;38.80;;;;;;6278662;28;20108;-73
2022/02/06 13:01:44;;;;;;;3.90;2.03;;;15.50;38.50;;;;;;6282406;28;20405;-73
2022/02/06 13:04:58;;;;;;;5.32;2.47;;;15.40;38.60;;;;;;6279645;28;20048;-72
2022/02/06 13:07:59;;;;;;;6.97;2.45;;;15.50;38.70;;;;;;6280467;28;20334;-72
2022/02/06 13:11:05;;;;;;;13.73;3.20;;;15.50;38.70;;;;;;6282070;28;20030;-72
2022/02/06 13:24:02;;;;;;;13.38;3.75;;;15.40;38.90;;;;;;6277534;28;20033;-73
2022/02/06 13:30:32;;;;;;;5.88;3.10;;;15.40;38.90;;;;;;6278267;28;20506;-72
2022/02/06 13:34:02;;;;;;;8.10;3.30;;;15.40;38.90;;;;;;6259015;28;20422;-72
2022/02/06 13:37:24;;;;;;;8.90;3.17;;;15.30;39.00;;;;;;6263110;28;20020;-72
2022/02/06 13:40:31;;;;;;;10.32;2.90;;;15.30;39.10;;;;;;6262190;28;20107;-72
2022/02/06 13:43:39;;;;;;;7.68;3.30;;;15.30;39.10;;;;;;6258300;28;20053;-73
2022/02/06 13:46:42;;;;;;;10.57;4.55;;;15.30;38.90;;;;;;6259757;28;20033;-73
2022/02/06 13:49:49;;;;;;;11.00;4.20;;;15.30;38.80;;;;;;6281315;28;20036;-74
2022/02/06 13:53:12;;;;;;;14.77;5.55;;;15.20;38.80;;;;;;6259882;28;20456;-73
2022/02/06 13:56:16;;;;;;;6.30;3.00;;;15.10;39.00;;;;;;6261621;28;20350;-72
2022/02/06 13:59:22;;;;;;;12.57;4.13;;;15.00;38.90;;;;;;6259775;28;20119;-72
2022/02/06 14:02:23;;;;;;;15.45;3.13;;;15.00;39.10;;;;;;6263539;28;20025;-73
2022/02/06 14:05:26;;;;;;;6.30;2.72;;;14.80;39.30;;;;;;6277913;28;20045;-72
2022/02/06 14:08:30;;;;;;;9.15;3.28;;;14.80;39.50;;;;;;6275642;28;20703;-72
2022/02/06 14:11:32;;;;;;;5.60;2.78;;;14.70;39.60;;;;;;6258453;28;20420;-72
2022/02/06 14:14:47;;;;;;;5.93;3.05;;;14.60;39.80;;;;;;6278388;28;20029;-73
2022/02/06 14:17:49;;;;;;;6.80;2.90;;;14.60;40.00;;;;;;6278876;28;20056;-72
2022/02/06 14:20:58;;;;;;;10.43;2.92;;;14.50;39.90;;;;;;6277186;28;20021;-72
2022/02/06 14:24:03;;;;;;;9.77;3.22;;;14.40;40.00;;;;;;6278579;28;20020;-73
2022/02/06 14:27:05;;;;;;;9.23;3.88;;;14.40;40.20;;;;;;6266245;28;20075;-72
2022/02/06 14:30:22;;;;;;;8.02;3.03;;;14.30;40.30;;;;;;6279038;28;20029;-73
2022/02/06 14:33:26;;;;;;;16.35;3.40;;;14.30;40.50;;;;;;6281901;28;20048;-73
2022/02/06 14:36:27;;;;;;;8.82;3.60;;;14.20;40.60;;;;;;6274876;28;20067;-72
2022/02/06 14:39:33;;;;;;;9.23;3.55;;;14.10;40.90;;;;;;6276462;28;20068;-72
2022/02/06 14:42:36;;;;;;;8.05;3.40;;;14.00;41.00;;;;;;6279065;28;20255;-72
2022/02/06 14:45:48;;;;;;;5.72;3.20;;;14.00;41.30;;;;;;6278628;28;20053;-72
2022/02/06 14:48:49;;;;;;;12.52;4.90;;;14.00;41.40;;;;;;6277941;28;20112;-71
2022/02/06 14:51:51;;;;;;;9.82;3.55;;;14.00;41.50;;;;;;6274302;28;20025;-72
2022/02/06 14:54:51;;;;;;;12.05;3.70;;;14.10;41.50;;;;;;6278957;28;20040;-72
2022/02/06 14:57:52;;;;;;;9.20;3.88;;;14.10;41.50;;;;;;6278971;28;20169;-73
2022/02/06 15:00:53;;;;;;;21.17;9.98;;;14.10;41.50;;;;;;6274402;28;20043;-72
2022/02/06 15:03:54;;;;;;;9.75;4.05;;;14.20;41.40;;;;;;6275428;28;20496;-72
2022/02/06 15:06:55;;;;;;;8.43;2.95;;;14.20;41.40;;;;;;6277715;28;20056;-72
2022/02/06 15:09:56;;;;;;;7.93;3.45;;;14.10;41.40;;;;;;6274218;28;20062;-72
2022/02/06 15:12:58;;;;;;;5.40;3.08;;;14.10;41.40;;;;;;6262442;28;20107;-72
2022/02/06 15:16:06;;;;;;;11.18;3.53;;;14.00;41.30;;;;;;6274819;28;20047;-73
2022/02/06 15:19:17;;;;;;;8.80;3.47;;;14.00;41.40;;;;;;6277483;28;20101;-72
2022/02/06 15:22:18;;;;;;;5.22;2.53;;;13.90;41.50;;;;;;6276356;28;20455;-72
2022/02/06 15:25:19;;;;;;;7.90;2.75;;;13.90;41.60;;;;;;6277567;28;20036;-73
2022/02/06 15:28:22;;;;;;;5.72;2.67;;;13.90;41.70;;;;;;6275394;28;20021;-72
2022/02/06 15:31:23;;;;;;;10.68;3.15;;;13.80;41.70;;;;;;6278771;28;20058;-73
2022/02/06 15:34:26;;;;;;;10.23;2.85;;;13.80;41.80;;;;;;6274842;28;20021;-73
2022/02/06 15:37:29;;;;;;;6.47;2.80;;;13.80;41.90;;;;;;6279404;28;20035;-72
2022/02/06 15:40:32;;;;;;;9.40;3.13;;;13.80;41.90;;;;;;6279570;28;20037;-73
2022/02/06 15:43:32;;;;;;;8.27;3.00;;;13.70;41.90;;;;;;6279287;28;20050;-73
2022/02/06 15:46:34;;;;;;;6.28;2.90;;;13.80;42.10;;;;;;6282372;28;20047;-72
2022/02/06 15:49:35;;;;;;;9.95;3.38;;;13.80;42.10;;;;;;6281125;28;20025;-71
2022/02/06 15:52:37;;;;;;;13.38;3.83;;;13.80;42.10;;;;;;6279659;28;20054;-71
2022/02/06 15:55:37;;;;;;;9.23;2.85;;;13.80;42.00;;;;;;6282747;28;20030;-72
2022/02/06 15:58:38;;;;;;;4.63;2.42;;;13.80;42.00;;;;;;6279176;28;20025;-72
2022/02/06 16:01:40;;;;;;;10.15;3.20;;;13.70;42.00;;;;;;6279588;28;20021;-73
2022/02/06 16:04:41;;;;;;;7.53;3.22;;;13.70;42.00;;;;;;6281156;28;20037;-72
2022/02/06 16:07:42;;;;;;;7.78;3.33;;;13.60;42.10;;;;;;6282408;28;20032;-72
2022/02/06 16:10:43;;;;;;;5.55;2.63;;;13.60;42.20;;;;;;6287323;28;20047;-73
2022/02/06 16:13:44;;;;;;;7.13;2.42;;;13.50;42.20;;;;;;6285509;28;20013;-72
2022/02/06 16:16:45;;;;;;;3.78;2.33;;;13.60;42.20;;;;;;6278602;28;20051;-73
2022/02/06 16:19:46;;;;;;;6.50;3.05;;;13.50;42.10;;;;;;6278272;28;20028;-73
2022/02/06 16:22:47;;;;;;;5.95;2.78;;;13.50;42.10;;;;;;6283494;28;20043;-72
2022/02/06 16:25:48;;;;;;;7.65;3.08;;;13.50;42.10;;;;;;6276725;28;20033;-73
2022/02/06 16:28:52;;;;;;;11.18;2.90;;;13.50;42.30;;;;;;6278610;28;20016;-72
2022/02/06 16:31:53;;;;;;;5.57;2.83;;;13.50;42.30;;;;;;6282249;28;20024;-71
2022/02/06 16:34:55;;;;;;;9.85;2.65;;;13.40;42.30;;;;;;6279267;28;20021;-72
2022/02/06 16:37:55;;;;;;;6.00;2.90;;;13.40;42.40;;;;;;6279272;28;20103;-71
2022/02/06 16:40:58;;;;;;;12.30;3.25;;;13.40;42.40;;;;;;6279932;28;20412;-72
2022/02/06 16:43:58;;;;;;;16.02;5.43;;;13.40;42.50;;;;;;6280751;28;20052;-72
2022/02/06 16:46:59;;;;;;;15.18;5.07;;;13.30;42.60;;;;;;6280744;28;20077;-71
2022/02/06 16:50:00;;;;;;;12.27;4.00;;;13.30;42.70;;;;;;6271158;28;20029;-72
2022/02/06 16:53:01;;;;;;;11.35;3.65;;;13.30;42.80;;;;;;6286776;28;20655;-73
2022/02/06 16:56:02;;;;;;;12.57;3.20;;;13.20;42.80;;;;;;6277812;28;20031;-72
2022/02/06 16:59:03;;;;;;;6.70;3.55;;;13.20;42.90;;;;;;6279420;28;20031;-72
2022/02/06 17:02:04;;;;;;;7.13;3.22;;;13.20;43.00;;;;;;6261896;28;20040;-72
2022/02/06 17:05:05;;;;;;;6.97;3.05;;;13.20;43.10;;;;;;6277817;28;20044;-72
2022/02/06 17:08:06;;;;;;;11.55;3.85;;;13.20;43.20;;;;;;6283167;28;20059;-72
2022/02/06 17:11:08;;;;;;;5.75;3.33;;;13.10;43.10;;;;;;6275029;28;20116;-72
2022/02/06 17:14:13;;;;;;;8.43;3.33;;;13.20;43.20;;;;;;6280848;28;20461;-72
2022/02/06 17:17:14;;;;;;;10.48;3.28;;;13.20;43.20;;;;;;6277916;28;20110;-72
2022/02/06 17:20:15;;;;;;;27.30;4.30;;;13.20;43.20;;;;;;6278325;28;20037;-72
2022/02/06 17:23:17;;;;;;;11.73;5.03;;;13.20;43.30;;;;;;6278571;28;20059;-72
2022/02/06 17:26:17;;;;;;;10.05;4.57;;;13.20;43.30;;;;;;6277319;28;20508;-72
2022/02/06 17:29:19;;;;;;;15.93;6.60;;;13.20;43.40;;;;;;6277920;28;20032;-72
2022/02/06 17:32:20;;;;;;;20.23;5.97;;;13.20;43.40;;;;;;6281157;28;20099;-73
2022/02/06 17:35:22;;;;;;;9.70;4.30;;;13.30;43.40;;;;;;6279655;28;20032;-73
2022/02/06 17:38:27;;;;;;;8.85;3.80;;;13.20;43.40;;;;;;6272722;28;20124;-71
2022/02/06 17:41:28;;;;;;;13.10;5.18;;;13.20;43.40;;;;;;6277870;28;20025;-71
2022/02/06 17:44:29;;;;;;;7.65;3.70;;;13.30;43.30;;;;;;6279251;28;20514;-72
2022/02/06 17:47:30;;;;;;;8.85;4.13;;;13.20;43.20;;;;;;6278715;28;20032;-71
2022/02/06 17:50:34;;;;;;;8.27;3.70;;;13.30;43.30;;;;;;6275116;28;20047;-73
2022/02/06 17:53:35;;;;;;;8.73;4.18;;;13.30;43.30;;;;;;6279303;28;20056;-72
2022/02/06 17:56:37;;;;;;;12.68;4.78;;;13.20;43.30;;;;;;6277864;28;20448;-72
2022/02/06 17:59:38;;;;;;;15.18;4.30;;;13.30;43.40;;;;;;6269061;28;20099;-72
2022/02/06 18:02:39;;;;;;;13.77;4.40;;;13.30;43.50;;;;;;6277157;28;20032;-72
2022/02/06 18:05:40;;;;;;;20.35;6.75;;;13.30;43.50;;;;;;6259050;28;20032;-71
2022/02/06 18:08:41;;;;;;;13.38;4.38;;;13.20;43.60;;;;;;6279963;28;20020;-71
2022/02/06 18:11:42;;;;;;;14.52;5.07;;;13.20;43.80;;;;;;6259580;28;20031;-72
2022/02/06 18:14:43;;;;;;;11.45;4.10;;;13.20;44.00;;;;;;6247620;28;20095;-72
2022/02/06 18:17:45;;;;;;;12.40;5.15;;;13.20;44.10;;;;;;6265698;28;20244;-73
2022/02/06 18:20:46;;;;;;;13.68;5.28;;;13.20;44.20;;;;;;6259210;28;20036;-74
2022/02/06 18:23:47;;;;;;;13.48;5.13;;;13.20;44.30;;;;;;6251212;28;20490;-72
2022/02/06 18:26:48;;;;;;;14.23;5.10;;;13.20;44.40;;;;;;6246281;28;20107;-73
2022/02/06 18:29:51;;;;;;;13.10;6.35;;;13.10;44.40;;;;;;6276121;28;20024;-73
2022/02/06 18:32:53;;;;;;;15.57;5.65;;;13.10;44.50;;;;;;6246168;28;20058;-73
2022/02/06 18:35:55;;;;;;;12.82;4.90;;;13.10;44.70;;;;;;6260390;28;20331;-73